Time,TemperatureF,DewpointF,PressureIn,WindDirection,WindDirectionDegrees,WindSpeedMPH,WindSpeedGustMPH,Humidity,HourlyPrecipIn,Conditions,Clouds,dailyrainin,SoftwareType,DateUTC
2013-01-30 09:23:00,57.0,57.0,29.59,South,172,0.0,0.0,99,0.27,,,0.00,,2013-01-30 15:23:00,
2013-01-30 09:33:00,57.0,57.0,29.59,South,172,0.0,0.0,99,0.27,,,0.00,,2013-01-30 15:33:00,
2013-01-30 09:43:00,57.0,57.0,29.59,South,172,0.0,0.0,99,0.27,,,0.00,,2013-01-30 15:43:00,
2013-01-30 09:53:00,56.0,56.0,29.60,WSW,239,4.0,7.0,99,0.27,,,0.00,,2013-01-30 15:53:00,
2013-01-30 10:03:00,56.0,55.0,29.62,SSW,193,2.0,7.0,98,0.27,,,0.00,,2013-01-30 16:03:00,
2013-01-30 10:12:00,56.0,55.0,29.62,SSW,193,2.0,7.0,98,0.27,,,0.00,,2013-01-30 16:12:00,
2013-01-30 10:23:00,56.0,55.0,29.60,SW,233,2.0,6.0,98,0.10,,,0.00,,2013-01-30 16:23:00,
2013-01-30 10:32:00,56.0,55.0,29.60,SW,219,6.0,10.0,96,0.10,,,0.00,,2013-01-30 16:32:00,
2013-01-30 10:42:00,56.0,55.0,29.60,SW,219,6.0,10.0,96,0.10,,,0.00,,2013-01-30 16:42:00,
2013-01-30 10:52:00,56.0,55.0,29.60,SW,219,6.0,10.0,96,0.10,,,0.00,,2013-01-30 16:52:00,
2013-01-30 11:02:00,56.0,55.0,29.60,WSW,239,3.0,6.0,97,0.10,,,0.00,,2013-01-30 17:02:00,
2013-01-30 11:12:00,56.0,55.0,29.60,WSW,239,3.0,6.0,97,0.10,,,0.00,,2013-01-30 17:12:00,
2013-01-30 11:22:00,55.0,54.0,29.58,SSW,210,1.0,6.0,97,0.12,,,0.00,,2013-01-30 17:22:00,
2013-01-30 11:32:00,55.0,54.0,29.58,West,264,3.0,6.0,97,0.12,,,0.00,,2013-01-30 17:32:00,
2013-01-30 11:42:00,55.0,54.0,29.58,West,264,3.0,6.0,97,0.12,,,0.00,,2013-01-30 17:42:00,
2013-01-30 11:53:00,55.0,54.0,29.60,SSW,203,4.0,6.0,98,0.12,,,0.00,,2013-01-30 17:53:00,
2013-01-30 12:02:00,55.0,54.0,29.57,SSW,193,5.0,5.0,98,0.12,,,0.00,,2013-01-30 18:02:00,
2013-01-30 12:12:00,55.0,54.0,29.57,SSW,193,5.0,5.0,98,0.12,,,0.00,,2013-01-30 18:12:00,
2013-01-30 12:22:00,55.0,54.0,29.58,SW,228,5.0,9.0,98,0.07,,,0.00,,2013-01-30 18:22:00,
2013-01-30 12:33:00,55.0,54.0,29.59,WSW,240,7.0,14.0,98,0.07,,,0.00,,2013-01-30 18:33:00,
2013-01-30 12:42:00,55.0,54.0,29.59,WSW,240,7.0,14.0,98,0.07,,,0.00,,2013-01-30 18:42:00,
2013-01-30 12:53:00,55.0,54.0,29.58,West,274,6.0,12.0,97,0.07,,,0.00,,2013-01-30 18:53:00,
2013-01-30 13:02:00,54.0,53.0,29.55,West,278,6.0,9.0,97,0.07,,,0.00,,2013-01-30 19:02:00,
2013-01-30 13:12:00,54.0,53.0,29.55,West,278,6.0,9.0,97,0.07,,,0.00,,2013-01-30 19:12:00,
2013-01-30 13:22:00,54.0,53.0,29.56,West,280,7.0,10.0,97,0.02,,,0.00,,2013-01-30 19:22:00,
2013-01-30 13:32:00,55.0,54.0,29.56,West,270,7.0,10.0,97,0.02,,,0.00,,2013-01-30 19:32:00,
2013-01-30 13:43:00,55.0,54.0,29.56,West,270,7.0,10.0,97,0.02,,,0.00,,2013-01-30 19:43:00,
2013-01-30 13:53:00,55.0,54.0,29.55,WSW,242,6.0,9.0,97,0.02,,,0.00,,2013-01-30 19:53:00,
2013-01-30 14:03:00,55.0,54.0,29.54,SW,226,4.0,9.0,97,0.02,,,0.00,,2013-01-30 20:03:00,
2013-01-30 14:12:00,55.0,54.0,29.54,SW,226,4.0,9.0,97,0.02,,,0.00,,2013-01-30 20:12:00,
2013-01-30 14:22:00,55.0,54.0,29.55,WSW,257,3.0,8.0,97,0.00,,,0.00,,2013-01-30 20:22:00,
2013-01-30 14:33:00,55.0,54.0,29.55,West,267,3.0,9.0,96,0.00,,,0.00,,2013-01-30 20:33:00,
2013-01-30 14:42:00,55.0,54.0,29.55,West,267,3.0,9.0,96,0.00,,,0.00,,2013-01-30 20:42:00,
2013-01-30 14:52:00,56.0,55.0,29.55,SW,217,4.0,11.0,95,0.00,,,0.00,,2013-01-30 20:52:00,
2013-01-30 15:03:00,55.0,54.0,29.55,WSW,252,6.0,11.0,95,0.00,,,0.00,,2013-01-30 21:03:00,
2013-01-30 15:12:00,55.0,54.0,29.55,WSW,252,6.0,11.0,95,0.00,,,0.00,,2013-01-30 21:12:00,
2013-01-30 15:23:00,55.0,54.0,29.55,SW,235,5.0,12.0,95,0.00,,,0.00,,2013-01-30 21:23:00,
2013-01-30 15:32:00,55.0,52.0,29.54,West,266,6.0,11.0,91,0.00,,,0.00,,2013-01-30 21:32:00,
2013-01-30 15:42:00,55.0,52.0,29.54,West,266,6.0,11.0,91,0.00,,,0.00,,2013-01-30 21:42:00,
2013-01-30 15:52:00,56.0,53.0,29.55,WSW,250,6.0,12.0,89,0.00,,,0.00,,2013-01-30 21:52:00,
2013-01-30 16:02:00,55.0,51.0,29.56,West,281,8.0,15.0,87,0.00,,,0.00,,2013-01-30 22:02:00,
2013-01-30 16:12:00,55.0,51.0,29.56,West,281,8.0,15.0,87,0.00,,,0.00,,2013-01-30 22:12:00,
2013-01-30 16:22:00,55.0,51.0,29.57,West,262,5.0,12.0,87,0.00,,,0.00,,2013-01-30 22:22:00,
2013-01-30 16:32:00,55.0,51.0,29.57,West,277,8.0,15.0,87,0.00,,,0.00,,2013-01-30 22:32:00,
2013-01-30 16:42:00,55.0,51.0,29.57,West,277,8.0,15.0,87,0.00,,,0.00,,2013-01-30 22:42:00,
2013-01-30 16:53:00,54.0,50.0,29.58,West,264,7.0,23.0,86,0.00,,,0.00,,2013-01-30 22:53:00,
2013-01-30 17:02:00,53.0,49.0,29.58,West,277,9.0,14.0,86,0.00,,,0.00,,2013-01-30 23:02:00,
2013-01-30 17:12:00,53.0,49.0,29.58,West,277,9.0,14.0,86,0.00,,,0.00,,2013-01-30 23:12:00,
2013-01-30 17:22:00,53.0,48.0,29.58,West,281,9.0,17.0,82,0.00,,,0.00,,2013-01-30 23:22:00,
2013-01-30 17:32:00,53.0,44.0,29.59,West,280,11.0,23.0,72,0.00,,,0.00,,2013-01-30 23:32:00,
2013-01-30 17:42:00,53.0,44.0,29.59,West,280,11.0,23.0,72,0.00,,,0.00,,2013-01-30 23:42:00,
2013-01-30 17:52:00,54.0,46.0,29.60,NNW,333,6.0,22.0,73,0.00,,,0.00,,2013-01-30 23:52:00,
2013-01-30 18:02:00,49.0,47.0,29.63,West,271,10.0,19.0,92,0.00,,,0.00,,2013-01-31 00:02:00,
2013-01-30 18:11:00,49.0,47.0,29.63,West,271,10.0,19.0,92,0.00,,,0.00,,2013-01-31 00:11:00,
2013-01-30 18:22:00,47.0,46.0,29.67,NW,323,7.0,19.0,96,0.01,,,0.00,,2013-01-31 00:22:00,
2013-01-30 18:32:00,47.0,44.0,29.67,West,271,12.0,34.0,90,0.01,,,0.00,,2013-01-31 00:32:00,
2013-01-30 18:42:00,47.0,44.0,29.67,West,271,12.0,34.0,90,0.01,,,0.00,,2013-01-31 00:42:00,
2013-01-30 18:53:00,46.0,43.0,29.70,WSW,257,19.0,31.0,90,0.01,,,0.00,,2013-01-31 00:53:00,
2013-01-30 19:02:00,43.0,42.0,29.72,WNW,291,10.0,32.0,95,0.01,,,0.00,,2013-01-31 01:02:00,
2013-01-30 19:11:00,43.0,42.0,29.72,WNW,291,10.0,32.0,95,0.01,,,0.00,,2013-01-31 01:11:00,
2013-01-30 19:21:00,43.0,41.0,29.72,NW,305,7.0,20.0,92,0.02,,,0.00,,2013-01-31 01:21:00,
2013-01-30 19:31:00,43.0,41.0,29.73,NW,316,3.0,15.0,94,0.02,,,0.00,,2013-01-31 01:31:00,
2013-01-30 19:42:00,43.0,41.0,29.73,NW,316,3.0,15.0,94,0.02,,,0.00,,2013-01-31 01:42:00,
2013-01-30 19:52:00,43.0,41.0,29.75,WNW,285,6.0,14.0,92,0.02,,,0.00,,2013-01-31 01:52:00,
2013-01-30 20:01:00,43.0,41.0,29.76,WNW,285,7.0,14.0,91,0.02,,,0.00,,2013-01-31 02:01:00,
2013-01-30 20:11:00,43.0,41.0,29.76,WNW,285,7.0,14.0,91,0.02,,,0.00,,2013-01-31 02:11:00,
2013-01-30 20:21:00,43.0,40.0,29.77,West,276,8.0,13.0,89,0.00,,,0.00,,2013-01-31 02:21:00,
2013-01-30 20:32:00,42.0,38.0,29.77,WNW,285,8.0,13.0,86,0.00,,,0.00,,2013-01-31 02:32:00,
2013-01-30 20:41:00,42.0,38.0,29.77,WNW,285,8.0,13.0,86,0.00,,,0.00,,2013-01-31 02:41:00,
2013-01-30 20:52:00,42.0,38.0,29.77,WNW,285,8.0,13.0,86,0.00,,,0.00,,2013-01-31 02:52:00,
2013-01-30 21:03:00,41.0,38.0,29.81,NNW,345,9.0,18.0,89,0.00,,,0.00,,2013-01-31 03:03:00,
2013-01-30 21:11:00,41.0,38.0,29.81,NNW,345,9.0,18.0,89,0.00,,,0.00,,2013-01-31 03:11:00,
2013-01-30 21:21:00,41.0,34.0,29.83,WNW,283,8.0,25.0,75,0.01,,,0.00,,2013-01-31 03:21:00,
2013-01-30 21:32:00,41.0,34.0,29.85,West,271,6.0,20.0,75,0.01,,,0.00,,2013-01-31 03:32:00,
2013-01-30 21:41:00,41.0,34.0,29.85,West,271,6.0,20.0,75,0.01,,,0.00,,2013-01-31 03:41:00,
2013-01-30 21:52:00,41.0,34.0,29.86,NNW,332,8.0,21.0,75,0.01,,,0.00,,2013-01-31 03:52:00,
2013-01-30 22:02:00,40.0,33.0,29.88,WNW,284,8.0,14.0,76,0.01,,,0.00,,2013-01-31 04:02:00,
2013-01-30 22:11:00,40.0,33.0,29.88,WNW,284,8.0,14.0,76,0.01,,,0.00,,2013-01-31 04:11:00,
2013-01-30 22:22:00,40.0,33.0,29.89,WNW,300,9.0,14.0,77,0.00,,,0.00,,2013-01-31 04:22:00,
2013-01-30 22:31:00,40.0,33.0,29.89,WNW,291,9.0,22.0,76,0.00,,,0.00,,2013-01-31 04:31:00,
2013-01-30 22:41:00,40.0,33.0,29.89,WNW,291,9.0,22.0,76,0.00,,,0.00,,2013-01-31 04:41:00,
2013-01-30 22:52:00,40.0,33.0,29.91,NNW,332,8.0,21.0,75,0.00,,,0.00,,2013-01-31 04:52:00,
2013-01-30 23:03:00,40.0,31.0,29.92,WNW,283,8.0,17.0,71,0.00,,,0.00,,2013-01-31 05:03:00,
2013-01-30 23:11:00,40.0,31.0,29.92,WNW,283,8.0,17.0,71,0.00,,,0.00,,2013-01-31 05:11:00,
2013-01-30 23:22:00,40.0,31.0,29.92,WNW,297,6.0,21.0,71,0.00,,,0.00,,2013-01-31 05:22:00,
2013-01-30 23:32:00,40.0,31.0,29.92,WNW,297,6.0,21.0,71,0.00,,,0.00,,2013-01-31 05:32:00,
2013-01-30 23:41:00,39.0,31.0,29.92,NNE,13,8.0,15.0,72,0.00,,,0.00,,2013-01-31 05:41:00,
2013-01-30 23:52:00,39.0,31.0,29.92,NNE,13,8.0,15.0,72,0.00,,,0.00,,2013-01-31 05:52:00,